Challenge des Allures Libres de Gaume

La Rulloise - Rulles (10.50 km)

dimanche 10 octobre 2021

Le classement original se trouve sur : http://www.acdampicourt.be
CHALLENGE DES ALLURES LIBRES DE GAUME
LA RULLOISE - RULLES
DISTANCE : 10.50 km
dimanche 10 octobre 2021
 
Place Dos NOM Cat. Pl/Cat. Temps Temps/km Vitesse
01:00:00              
1 1492 FORTIN Yohan S 1 00:35:21 03:22 17.82
2 560 MAKACI Mourad S 2 00:37:01 03:32 17.02
3 1038 NOEL Arnaud S 3 00:37:37 03:35 16.75
4 1064 MERCURI Luca S 4 00:37:45 03:36 16.69
5 1356 DION Louis JH 1 00:39:10 03:44 16.09
6 1148 PICKE Hervé V2 1 00:39:47 03:47 15.84
7 1143 WOJCIAK Guillaume S 5 00:40:20 03:50 15.62
8 1166 BARBERON Guillaume S 6 00:40:29 03:51 15.56
9 1261 WILLAERT Sylvain S 7 00:40:35 03:52 15.52
10 1478 BOUSCHET Tristan S 8 00:40:47 03:53 15.45
11 880 LEBLICQ Romaric S 9 00:41:01 03:54 15.36
12 798 GAUTHY Cédric S 10 00:41:26 03:57 15.21
13 1217 BREVERY Jérémy S 11 00:41:40 03:58 15.12
14 520 AUTPHENNE Michaël V2 2 00:41:44 03:58 15.10
15 1586 DEPEAUW Olivier V1 1 00:41:45 03:59 15.09
16 675 THOMÉ Mathias JH 2 00:41:48 03:59 15.07
17 1355 THERER Bénédict V2 3 00:42:06 04:01 14.96
18 1423 NOEL Gilles S 12 00:42:09 04:01 14.95
19 1106 HENRARD Marceau S 13 00:42:11 04:01 14.93
20 325 PAQUET Raphaël V1 2 00:42:23 04:02 14.86
21 1207 BASQUIN Franck V1 3 00:42:30 04:03 14.82
22 198 FERET Régis V1 4 00:42:33 04:03 14.81
23 1449 MEURENS Arnaud S 14 00:42:44 04:04 14.74
24 292 ISAAC Stéphane V1 5 00:42:52 04:05 14.70
25 989 MARTIN Christophe V1 6 00:43:00 04:06 14.65
26 945 HUBERTY Philippe V2 4 00:43:01 04:06 14.65
27 719 EISCHEN Alexandre S 15 00:43:06 04:06 14.62
28 1044 VLEUGELS Frédéric V1 7 00:43:26 04:08 14.50
29 946 VAN ISEGHEM Axel V1 8 00:43:46 04:10 14.39
30 1173 BOUCHET Davy S 16 00:44:21 04:13 14.21
31 1591 THIRY Lenaïc S 17 00:44:38 04:15 14.12
32 992 BLOCK Francis V3 1 00:45:09 04:18 13.95
33 398 GALLAIRE Pascal V2 5 00:45:13 04:18 13.93
34 650 GODFRIND Fabrice S 18 00:45:20 04:19 13.90
35 1450 LEBRUN Céline F 1 00:45:33 04:20 13.83
36 205 KIM Eric V2 6 00:45:36 04:21 13.82
37 208 HUDELOT Eric V3 2 00:46:03 04:23 13.68
38 1319 MAISSIN Bruno V1 9 00:46:09 04:24 13.65
39 1589 MARCHAL Thomas S 19 00:46:37 04:26 13.51
40 991 DHAEZE Céline A1 1 00:46:42 04:27 13.49
41 423 PECHON Renaud S 20 00:46:43 04:27 13.49
42 942 CAILTEUX Guillaume S 21 00:46:51 04:28 13.45
43 1209 HANCK Charlyne F 2 00:46:56 04:28 13.42
44 360 SENSIQUE Nicolas V1 10 00:47:11 04:30 13.35
45 549 THERER Vincent V1 11 00:47:13 04:30 13.34
46 60 MAURY Fanny A1 2 00:47:17 04:30 13.32
47 505 MALCUIT Florent V2 7 00:47:21 04:31 13.31
48 1024 DELAFONTAINE Simon S 22 00:47:35 04:32 13.24
49 506 MALCUIT Yann V1 12 00:47:41 04:32 13.21
50 1040 THOMAS Dylan S 23 00:47:52 04:34 13.16
51 1140 HERMAN Stéphanie A1 3 00:47:56 04:34 13.14
52 1581 DE KEYN Fabian V1 13 00:47:58 04:34 13.13
53 1121 GIOT Yannic V1 14 00:48:09 04:35 13.08
54 1027 NICOLAS Fabien S 24 00:48:12 04:35 13.07
55 1457 CRÉLOT Julien V1 15 00:48:15 04:36 13.06
56 1245 PICARD Serge V2 8 00:48:19 04:36 13.04
57 1578 SCHICKS Axel V1 16 00:48:34 04:38 12.97
58 640 IANNONE Michel V1 17 00:48:47 04:39 12.91
59 203 D'ANTUONO Michele V2 9 00:48:51 04:39 12.90
60 182 PIERRARD Rudy S 25 00:48:53 04:39 12.89
61 1109 DETERME Mireille A2 1 00:49:02 04:40 12.85
62 591 COTTIN Raphaël V1 18 00:49:17 04:42 12.78
63 1352 SERVAGI Laurent V1 19 00:49:25 04:42 12.75
64 409 REISCH Mathias V3 3 00:49:29 04:43 12.73
65 545 BLOMMAERT Christine A2 2 00:49:35 04:43 12.71
66 1488 DIKER Rachid V1 20 00:49:36 04:43 12.70
67 1500 BALON Philippe V1 21 00:49:46 04:44 12.66
68 220 DENY Véronique A1 4 00:49:58 04:46 12.61
69 1230 DETAILLE Stéphane V1 22 00:50:00 04:46 12.60
70 683 LENAERTS Gary S 26 00:50:13 04:47 12.55
71 2415 BASTIN Geneviève A2 3 00:50:26 04:48 12.49
72 1575 PRESER Frédéric V1 23 00:50:27 04:48 12.49
73 1593 MINE Victor JH 3 00:50:28 04:48 12.48
74 488 DE BRESSING Michel V3 4 00:50:29 04:48 12.48
75 987 CAPON Clément JH 4 00:50:45 04:50 12.41
76 1093 GROSJEAN Damien S 27 00:50:49 04:50 12.40
77 1594 MINE Cédric V1 24 00:50:51 04:51 12.39
78 1596 NOTERMAN Eddy S 28 00:50:57 04:51 12.37
79 1186 VORILLION Sophie F 3 00:51:00 04:51 12.35
80 1211 ROBARDET Thibaud S 29 00:51:01 04:52 12.35
81 1010 RICHARD Fabrice V2 10 00:51:03 04:52 12.34
82 1074 GERARD José V2 11 00:51:36 04:55 12.21
83 1070 DEBOUT Hervé S 30 00:51:39 04:55 12.20
84 1026 JULITA Hubert V3 5 00:51:54 04:57 12.14
85 676 THOMÉ Jean V2 12 00:51:58 04:57 12.12
86 1172 CONROTTE Jean-François V1 25 00:52:04 04:58 12.10
87 1402 DEWEZ Didier V1 26 00:52:12 04:58 12.07
88 527 WÜRTH Lukas V2 13 00:52:30 05:00 12.00
89 523 MIHRAMANE Samir V1 27 00:52:35 05:00 11.98
90 657 DIEZ Robin JH 5 00:52:42 05:01 11.95
91 1583 MUZZUPAPA Danilo S 31 00:52:43 05:01 11.95
92 94 DARDAR Stéphanie A2 4 00:52:45 05:01 11.94
93 342 HANZIR Aurélien S 32 00:53:00 05:03 11.89
94 1309 RENARD Jean-Philippe V2 14 00:53:03 05:03 11.88
95 1458 MAITREJEAN Nicolas S 33 00:53:09 05:04 11.85
96 246 WANLIN Franck V2 15 00:53:10 05:04 11.85
97 1009 BROCARD Cyril S 34 00:53:12 05:04 11.84
98 329 OGER Bruno V2 16 00:53:17 05:04 11.82
99 1576 AMOROSI Adelio V3 6 00:53:19 05:05 11.82
100 1459 LEJEUNE Julien S 35 00:53:24 05:05 11.80
101 1007 PHILIPPART Stéphane V2 17 00:53:28 05:06 11.78
102 777 ROBLAIN Louis V2 18 00:53:30 05:06 11.78
103 596 TARNUS Noémie F 4 00:53:34 05:06 11.76
104 490 DE BRESSING Charlotte F 5 00:53:39 05:07 11.74
105 1072 TOUAZI Claude V2 19 00:53:41 05:07 11.74
106 126 FRANÇOIS Marilyn A1 5 00:53:46 05:07 11.72
107 1580 ALLIERI Elise A1 6 00:53:51 05:08 11.70
108 1046 BARTHOL Robert V3 7 00:53:56 05:08 11.68
109 1260 TEKEM Christian V1 28 00:54:05 05:09 11.65
110 1570 ADAM Servane F 6 00:54:07 05:09 11.64
111 169 MUSZALSKI Kathia A2 5 00:54:25 05:11 11.58
112 466 FLEMING David V1 29 00:54:43 05:13 11.51
113 378 OGER Michel V2 20 00:54:56 05:14 11.47
114 1584 MEURENS Annick A1 7 00:55:04 05:15 11.44
115 29 MINET Eric V2 21 00:55:05 05:15 11.44
116 242 MERVILLE Vincent V2 22 00:55:23 05:16 11.38
117 1479 DEOM William S 36 00:55:28 05:17 11.36
118 1202 DELCROIX Laetitia A1 8 00:55:31 05:17 11.35
119 1421 RONGVAUX Julie F 7 00:55:33 05:17 11.34
120 300 LHOTTE René V3 8 00:55:36 05:18 11.33
121 517 PONCIN Olivier V1 30 00:55:39 05:18 11.32
122 1077 JACOB Claudia A2 6 00:55:56 05:20 11.26
123 284 ROMAN Christabel A2 7 00:56:03 05:20 11.24
124 986 BODELET Catherine A1 9 00:56:12 05:21 11.21
125 1001 PEIFFER Laurent V1 31 00:56:13 05:21 11.21
126 1367 CHAPLIER Simon V1 32 00:56:22 05:22 11.18
127 1062 ZACHARY Dominique V3 9 00:56:25 05:22 11.17
128 285 ROMAN Olivier V1 33 00:56:30 05:23 11.15
129 1530 ROUARD Maxence S 37 00:56:46 05:24 11.10
130 33 FRANÇOIS Serge V3 10 00:56:51 05:25 11.08
131 319 RICAILLE Vinciane A3 1 00:57:00 05:26 11.05
132 1579 FUNK Jeannot V3 11 00:57:04 05:26 11.04
133 749 LEFEVRE Gérard V2 23 00:57:07 05:26 11.03
134 1022 MARTIN Jean-Louis V1 34 00:57:10 05:27 11.02
135 407 BASTIEN Laurent V1 35 00:57:23 05:28 10.98
136 1962 DASNOY Freddy V2 24 00:57:24 05:28 10.98
137 1592 HENRION Florian S 38 00:57:29 05:28 10.96
138 77 ZIMMER Etienne V1 36 00:57:30 05:29 10.96
139 1141 HEINEN Laurence A2 8 00:57:31 05:29 10.95
140 421 DENIS Michel V2 25 00:57:33 05:29 10.95
141 834 LIBOIS Raphaël V1 37 00:57:34 05:29 10.94
142 1170 PIERRET Carine A2 9 00:57:36 05:29 10.94
143 200 MERLIN Roberto V4 1 00:57:43 05:30 10.92
144 1076 ROLAND Etienne V2 26 00:58:04 05:32 10.85
145 321 NIHANT Myriam A3 2 00:58:12 05:33 10.82
146 432 xxx xxx   00:58:13 05:33 10.82
147 384 EICHER Benoît S 39 00:58:20 05:33 10.80
148 335 DERIDDER Marc V2 27 00:58:30 05:34 10.77
149 309 ROUYER Patrick V2 28 00:58:46 05:36 10.72
150 512 ZIMMER Guibert V3 12 00:58:49 05:36 10.71
151 175 SCHOCKERT Georges V2 29 00:58:59 05:37 10.68
152 1041 COLLOT Guy V2 30 00:59:06 05:38 10.66
153 194 xxx xxx   00:59:09 05:38 10.65
154 1012 RAUCY Marie-France A3 3 00:59:19 05:39 10.62
155 1582 CAILTEUX Elisabeth F 8 00:59:35 05:40 10.57
156 1577 AMANTINI Francis V3 13 00:59:44 05:41 10.55
157 1960 CLEMENT Serge V3 14 01:00:39 05:47 10.39
158 1574 ADAM Didier V2 31 01:00:43 05:47 10.38
159 1462 THISSEN Thomas S 40 01:00:46 05:47 10.37
160 1326 GUIOT Daniel V3 15 01:00:49 05:48 10.36
161 529 TIBESAR Matthieu S 41 01:00:56 05:48 10.34
162 1117 MOHNEN Céline A2 10 01:01:02 05:49 10.32
163 1428 THISSEN François S 42 01:01:03 05:49 10.32
164 943 LEROY Nicole A2 11 01:01:25 05:51 10.26
165 447 CHEVALIER Myriam A2 12 01:01:34 05:52 10.23
166 1229 SCHANEN Nathalie A3 4 01:01:41 05:52 10.21
167 1499 BERTRAND Nicolas S 43 01:01:45 05:53 10.20
168 1585 WOLFF Fabrice V2 32 01:01:49 05:53 10.19
169 1597 HENRY Edwin S 44 01:01:50 05:53 10.19
170 241 TOUILLAUX Dominique V2 33 01:01:51 05:53 10.19
171 1588 CORMAN Thierry S 45 01:02:00 05:54 10.16
172 1203 GERARD David V1 38 01:02:28 05:57 10.09
173 1454 MALCUIT Marie-Ange A4 1 01:02:50 05:59 10.03
174 1131 BOUCHET Fabrice V3 16 01:02:52 05:59 10.02
175 351 ALLARD Pascal V2 34 01:02:54 05:59 10.02
176 582 CROCHET Chantal A3 5 01:03:20 06:02 9.95
177 622 PIERRET Thierry V2 35 01:03:24 06:02 9.94
178 538 BLONDEAU Alban V1 39 01:03:44 06:04 9.88
179 1567 DEMORTIER Anne-Lise F 9 01:05:19 06:13 9.65
180 993 DEBAUCHERON Thierry V2 36 01:05:34 06:15 9.61
181 111 DARGENTON Patrice V2 37 01:06:12 06:18 9.52
182 257 WELTER Jean-Marie V4 2 01:07:19 06:25 9.36
183 1587 REICHLING Mégane F 10 01:07:22 06:25 9.35
184 245 REMER Christelle A2 13 01:07:26 06:25 9.34
185 1325 LEONARD Edmée A3 6 01:07:34 06:26 9.32
186 511 ZIMMER Aurélien S 46 01:07:35 06:26 9.32
187 1434 AROMATARIO Bernard V2 38 01:08:05 06:29 9.25
188 227 FELTZ Gilbert V2 39 01:09:30 06:37 9.06
189 306 PIRENNE Bénédicte A2 14 01:09:58 06:40 9.00
190 1467 TONGLET Nathalie A2 15 01:10:19 06:42 8.96
191 1123 PELLETIER Marylène A3 7 01:11:04 06:46 8.86
192 231 PENNING Jean-François V1 40 01:12:04 06:52 8.74
193 1049 NICOLAS Marie-Jeanne A3 8 01:12:29 06:54 8.69
194 1556 FRANÇOIS Pascal V3 17 01:13:55 07:02 8.52
195 311 QUEVY Laurence A2 16 01:17:12 07:21 8.16
196 254 DEBATY Alain V2 40 01:19:09 07:32 7.96
               
Nos dernières videos